sensor_id;sensor_type;location;lat;lon;timestamp;P1;durP1;ratioP1;P2;durP2;ratioP2
70455;SDS011;57916;51.996;5.180;2023-12-20T00:02:15;15.98;;;2.40;;
70455;SDS011;57916;51.996;5.180;2023-12-20T00:04:42;16.35;;;1.90;;
70455;SDS011;57916;51.996;5.180;2023-12-20T00:07:10;13.13;;;2.08;;
70455;SDS011;57916;51.996;5.180;2023-12-20T00:09:37;15.23;;;2.17;;
70455;SDS011;57916;51.996;5.180;2023-12-20T00:12:04;15.70;;;2.05;;
70455;SDS011;57916;51.996;5.180;2023-12-20T00:14:31;16.40;;;2.33;;
70455;SDS011;57916;51.996;5.180;2023-12-20T00:16:58;16.25;;;1.98;;
70455;SDS011;57916;51.996;5.180;2023-12-20T00:19:25;17.58;;;2.60;;
70455;SDS011;57916;51.996;5.180;2023-12-20T00:21:52;21.38;;;2.33;;
70455;SDS011;57916;51.996;5.180;2023-12-20T00:24:19;15.75;;;2.15;;
70455;SDS011;57916;51.996;5.180;2023-12-20T00:26:46;17.20;;;2.25;;
70455;SDS011;57916;51.996;5.180;2023-12-20T00:29:13;16.08;;;2.30;;
70455;SDS011;57916;51.996;5.180;2023-12-20T00:31:40;14.57;;;2.43;;
70455;SDS011;57916;51.996;5.180;2023-12-20T00:34:07;11.55;;;2.03;;
70455;SDS011;57916;51.996;5.180;2023-12-20T00:36:35;13.27;;;2.47;;
70455;SDS011;57916;51.996;5.180;2023-12-20T00:39:02;16.70;;;2.38;;
70455;SDS011;57916;51.996;5.180;2023-12-20T00:41:29;15.15;;;2.00;;
70455;SDS011;57916;51.996;5.180;2023-12-20T00:43:56;22.52;;;2.65;;
70455;SDS011;57916;51.996;5.180;2023-12-20T00:46:23;14.63;;;2.03;;
70455;SDS011;57916;51.996;5.180;2023-12-20T00:48:50;19.38;;;1.92;;
70455;SDS011;57916;51.996;5.180;2023-12-20T00:51:17;14.52;;;2.28;;
70455;SDS011;57916;51.996;5.180;2023-12-20T00:53:44;19.83;;;2.17;;
70455;SDS011;57916;51.996;5.180;2023-12-20T00:56:12;14.93;;;2.08;;
70455;SDS011;57916;51.996;5.180;2023-12-20T00:58:39;15.30;;;1.80;;
70455;SDS011;57916;51.996;5.180;2023-12-20T01:01:06;16.13;;;1.70;;
70455;SDS011;57916;51.996;5.180;2023-12-20T01:03:33;16.67;;;2.35;;
70455;SDS011;57916;51.996;5.180;2023-12-20T01:06:00;15.07;;;2.20;;
70455;SDS011;57916;51.996;5.180;2023-12-20T01:08:27;17.25;;;1.92;;
70455;SDS011;57916;51.996;5.180;2023-12-20T01:10:54;12.88;;;2.05;;
70455;SDS011;57916;51.996;5.180;2023-12-20T01:13:20;13.18;;;1.83;;
70455;SDS011;57916;51.996;5.180;2023-12-20T01:15:47;14.60;;;2.40;;
70455;SDS011;57916;51.996;5.180;2023-12-20T01:18:15;9.95;;;1.70;;
70455;SDS011;57916;51.996;5.180;2023-12-20T01:20:42;14.55;;;2.05;;
70455;SDS011;57916;51.996;5.180;2023-12-20T01:23:09;14.38;;;2.28;;
70455;SDS011;57916;51.996;5.180;2023-12-20T01:25:36;17.83;;;2.40;;
70455;SDS011;57916;51.996;5.180;2023-12-20T01:28:03;16.90;;;2.28;;
70455;SDS011;57916;51.996;5.180;2023-12-20T01:30:30;14.90;;;2.03;;
70455;SDS011;57916;51.996;5.180;2023-12-20T01:32:57;17.27;;;2.25;;
70455;SDS011;57916;51.996;5.180;2023-12-20T01:35:26;14.65;;;1.80;;
70455;SDS011;57916;51.996;5.180;2023-12-20T01:37:53;15.48;;;2.10;;
70455;SDS011;57916;51.996;5.180;2023-12-20T01:40:23;14.27;;;2.33;;
70455;SDS011;57916;51.996;5.180;2023-12-20T01:43:07;16.85;;;2.22;;
70455;SDS011;57916;51.996;5.180;2023-12-20T01:45:35;17.63;;;2.58;;
70455;SDS011;57916;51.996;5.180;2023-12-20T01:48:02;12.93;;;2.17;;
70455;SDS011;57916;51.996;5.180;2023-12-20T01:50:31;15.85;;;2.15;;
70455;SDS011;57916;51.996;5.180;2023-12-20T01:53:01;14.57;;;2.20;;
70455;SDS011;57916;51.996;5.180;2023-12-20T01:55:31;18.17;;;2.60;;
70455;SDS011;57916;51.996;5.180;2023-12-20T01:57:59;24.73;;;3.00;;
70455;SDS011;57916;51.996;5.180;2023-12-20T02:00:27;20.00;;;2.90;;
70455;SDS011;57916;51.996;5.180;2023-12-20T02:02:55;12.98;;;2.58;;
70455;SDS011;57916;51.996;5.180;2023-12-20T02:05:28;20.73;;;2.60;;
70455;SDS011;57916;51.996;5.180;2023-12-20T02:07:59;20.17;;;2.85;;
70455;SDS011;57916;51.996;5.180;2023-12-20T02:10:26;22.45;;;2.47;;
70455;SDS011;57916;51.996;5.180;2023-12-20T02:12:54;22.42;;;3.20;;
70455;SDS011;57916;51.996;5.180;2023-12-20T02:15:21;27.48;;;2.80;;
70455;SDS011;57916;51.996;5.180;2023-12-20T02:17:48;17.57;;;2.83;;
70455;SDS011;57916;51.996;5.180;2023-12-20T02:20:16;23.67;;;3.10;;
70455;SDS011;57916;51.996;5.180;2023-12-20T02:22:43;16.33;;;2.75;;
70455;SDS011;57916;51.996;5.180;2023-12-20T02:25:10;18.02;;;2.83;;
70455;SDS011;57916;51.996;5.180;2023-12-20T02:27:37;19.85;;;2.63;;
70455;SDS011;57916;51.996;5.180;2023-12-20T02:30:06;22.10;;;2.90;;
70455;SDS011;57916;51.996;5.180;2023-12-20T02:32:33;17.00;;;3.33;;
70455;SDS011;57916;51.996;5.180;2023-12-20T02:35:00;21.02;;;2.80;;
70455;SDS011;57916;51.996;5.180;2023-12-20T02:37:27;22.40;;;3.10;;
70455;SDS011;57916;51.996;5.180;2023-12-20T02:39:54;20.10;;;3.28;;
70455;SDS011;57916;51.996;5.180;2023-12-20T02:42:21;19.20;;;3.00;;
70455;SDS011;57916;51.996;5.180;2023-12-20T02:44:48;15.23;;;2.90;;
70455;SDS011;57916;51.996;5.180;2023-12-20T02:47:15;19.20;;;2.60;;
70455;SDS011;57916;51.996;5.180;2023-12-20T02:49:41;18.27;;;2.83;;
70455;SDS011;57916;51.996;5.180;2023-12-20T02:52:09;22.42;;;2.85;;
70455;SDS011;57916;51.996;5.180;2023-12-20T02:54:36;22.05;;;3.38;;
70455;SDS011;57916;51.996;5.180;2023-12-20T02:57:03;22.30;;;2.78;;
70455;SDS011;57916;51.996;5.180;2023-12-20T02:59:30;21.67;;;2.95;;
70455;SDS011;57916;51.996;5.180;2023-12-20T03:01:57;24.98;;;3.60;;
70455;SDS011;57916;51.996;5.180;2023-12-20T03:04:24;20.70;;;2.85;;
70455;SDS011;57916;51.996;5.180;2023-12-20T03:06:51;13.82;;;2.47;;
70455;SDS011;57916;51.996;5.180;2023-12-20T03:09:18;20.93;;;2.97;;
70455;SDS011;57916;51.996;5.180;2023-12-20T03:11:45;24.20;;;3.33;;
70455;SDS011;57916;51.996;5.180;2023-12-20T03:14:12;24.60;;;3.40;;
70455;SDS011;57916;51.996;5.180;2023-12-20T03:16:39;24.33;;;2.88;;
70455;SDS011;57916;51.996;5.180;2023-12-20T03:19:06;20.92;;;3.10;;
70455;SDS011;57916;51.996;5.180;2023-12-20T03:21:33;17.52;;;2.83;;
70455;SDS011;57916;51.996;5.180;2023-12-20T03:24:00;22.30;;;3.00;;
70455;SDS011;57916;51.996;5.180;2023-12-20T03:26:27;24.75;;;3.15;;
70455;SDS011;57916;51.996;5.180;2023-12-20T03:28:54;25.90;;;3.15;;
70455;SDS011;57916;51.996;5.180;2023-12-20T03:31:21;26.63;;;3.28;;
70455;SDS011;57916;51.996;5.180;2023-12-20T03:33:48;18.50;;;2.83;;
70455;SDS011;57916;51.996;5.180;2023-12-20T03:36:15;17.93;;;2.30;;
70455;SDS011;57916;51.996;5.180;2023-12-20T03:38:42;18.07;;;2.90;;
70455;SDS011;57916;51.996;5.180;2023-12-20T03:41:12;19.80;;;2.85;;
70455;SDS011;57916;51.996;5.180;2023-12-20T03:43:39;20.92;;;2.63;;
70455;SDS011;57916;51.996;5.180;2023-12-20T03:46:07;27.33;;;2.88;;
70455;SDS011;57916;51.996;5.180;2023-12-20T03:48:35;22.67;;;2.80;;
70455;SDS011;57916;51.996;5.180;2023-12-20T03:51:02;20.15;;;3.20;;
70455;SDS011;57916;51.996;5.180;2023-12-20T03:53:28;14.93;;;2.20;;
70455;SDS011;57916;51.996;5.180;2023-12-20T03:55:55;23.63;;;2.67;;
70455;SDS011;57916;51.996;5.180;2023-12-20T03:58:22;21.20;;;2.95;;
70455;SDS011;57916;51.996;5.180;2023-12-20T04:00:49;26.23;;;2.58;;
70455;SDS011;57916;51.996;5.180;2023-12-20T04:03:16;25.23;;;2.73;;
70455;SDS011;57916;51.996;5.180;2023-12-20T04:05:43;26.25;;;2.78;;
70455;SDS011;57916;51.996;5.180;2023-12-20T04:08:10;25.95;;;3.42;;
70455;SDS011;57916;51.996;5.180;2023-12-20T04:10:37;23.42;;;2.72;;
70455;SDS011;57916;51.996;5.180;2023-12-20T04:13:04;22.80;;;2.97;;
70455;SDS011;57916;51.996;5.180;2023-12-20T04:15:31;17.27;;;2.80;;
70455;SDS011;57916;51.996;5.180;2023-12-20T04:17:58;24.70;;;3.35;;
70455;SDS011;57916;51.996;5.180;2023-12-20T04:20:25;24.42;;;3.13;;
70455;SDS011;57916;51.996;5.180;2023-12-20T04:22:52;22.07;;;2.77;;
70455;SDS011;57916;51.996;5.180;2023-12-20T04:25:19;20.98;;;2.65;;
70455;SDS011;57916;51.996;5.180;2023-12-20T04:27:46;20.80;;;2.50;;
70455;SDS011;57916;51.996;5.180;2023-12-20T04:30:14;23.30;;;2.58;;
70455;SDS011;57916;51.996;5.180;2023-12-20T04:32:41;26.60;;;2.97;;
70455;SDS011;57916;51.996;5.180;2023-12-20T04:35:08;18.98;;;2.70;;
70455;SDS011;57916;51.996;5.180;2023-12-20T04:37:36;20.95;;;2.88;;
70455;SDS011;57916;51.996;5.180;2023-12-20T04:40:03;23.25;;;3.10;;
70455;SDS011;57916;51.996;5.180;2023-12-20T04:42:31;17.33;;;2.70;;
70455;SDS011;57916;51.996;5.180;2023-12-20T04:44:58;22.38;;;3.08;;
70455;SDS011;57916;51.996;5.180;2023-12-20T04:47:25;18.52;;;2.78;;
70455;SDS011;57916;51.996;5.180;2023-12-20T04:49:52;16.35;;;2.55;;
70455;SDS011;57916;51.996;5.180;2023-12-20T04:52:19;16.33;;;2.83;;
70455;SDS011;57916;51.996;5.180;2023-12-20T04:54:46;21.48;;;2.67;;
70455;SDS011;57916;51.996;5.180;2023-12-20T04:57:13;15.80;;;3.08;;
70455;SDS011;57916;51.996;5.180;2023-12-20T04:59:40;22.58;;;3.03;;
70455;SDS011;57916;51.996;5.180;2023-12-20T05:02:08;21.98;;;2.85;;
70455;SDS011;57916;51.996;5.180;2023-12-20T05:04:34;18.77;;;3.25;;
70455;SDS011;57916;51.996;5.180;2023-12-20T05:07:02;23.15;;;2.70;;
70455;SDS011;57916;51.996;5.180;2023-12-20T05:09:31;27.83;;;3.10;;
70455;SDS011;57916;51.996;5.180;2023-12-20T05:11:58;16.35;;;2.67;;
70455;SDS011;57916;51.996;5.180;2023-12-20T05:14:25;14.95;;;3.20;;
70455;SDS011;57916;51.996;5.180;2023-12-20T05:16:52;21.92;;;2.70;;
70455;SDS011;57916;51.996;5.180;2023-12-20T05:19:19;18.10;;;2.58;;
70455;SDS011;57916;51.996;5.180;2023-12-20T05:21:46;19.55;;;3.13;;
70455;SDS011;57916;51.996;5.180;2023-12-20T05:24:13;21.80;;;3.30;;
70455;SDS011;57916;51.996;5.180;2023-12-20T05:26:41;24.35;;;3.00;;
70455;SDS011;57916;51.996;5.180;2023-12-20T05:29:07;22.10;;;3.38;;
70455;SDS011;57916;51.996;5.180;2023-12-20T05:31:34;19.25;;;2.75;;
70455;SDS011;57916;51.996;5.180;2023-12-20T05:34:01;22.98;;;3.17;;
70455;SDS011;57916;51.996;5.180;2023-12-20T05:36:28;19.48;;;3.00;;
70455;SDS011;57916;51.996;5.180;2023-12-20T05:38:55;16.08;;;2.10;;
70455;SDS011;57916;51.996;5.180;2023-12-20T05:41:22;28.80;;;3.25;;
70455;SDS011;57916;51.996;5.180;2023-12-20T05:43:49;24.75;;;4.05;;
70455;SDS011;57916;51.996;5.180;2023-12-20T05:46:16;17.15;;;2.67;;
70455;SDS011;57916;51.996;5.180;2023-12-20T05:48:43;15.75;;;2.95;;
70455;SDS011;57916;51.996;5.180;2023-12-20T05:51:13;24.55;;;3.17;;
70455;SDS011;57916;51.996;5.180;2023-12-20T05:53:40;21.93;;;2.93;;
70455;SDS011;57916;51.996;5.180;2023-12-20T05:56:07;19.45;;;2.60;;
70455;SDS011;57916;51.996;5.180;2023-12-20T05:58:34;19.10;;;2.90;;
70455;SDS011;57916;51.996;5.180;2023-12-20T06:01:03;21.27;;;3.13;;
70455;SDS011;57916;51.996;5.180;2023-12-20T06:03:31;27.02;;;2.97;;
70455;SDS011;57916;51.996;5.180;2023-12-20T06:05:58;21.70;;;2.80;;
70455;SDS011;57916;51.996;5.180;2023-12-20T06:08:41;18.43;;;2.63;;
70455;SDS011;57916;51.996;5.180;2023-12-20T06:11:10;21.60;;;2.90;;
70455;SDS011;57916;51.996;5.180;2023-12-20T06:13:37;16.92;;;2.20;;
70455;SDS011;57916;51.996;5.180;2023-12-20T06:16:05;19.88;;;3.33;;
70455;SDS011;57916;51.996;5.180;2023-12-20T06:18:32;21.00;;;2.95;;
70455;SDS011;57916;51.996;5.180;2023-12-20T06:20:59;23.67;;;3.00;;
70455;SDS011;57916;51.996;5.180;2023-12-20T06:23:26;19.52;;;2.88;;
70455;SDS011;57916;51.996;5.180;2023-12-20T06:25:54;21.73;;;2.75;;
70455;SDS011;57916;51.996;5.180;2023-12-20T06:28:21;22.00;;;2.97;;
70455;SDS011;57916;51.996;5.180;2023-12-20T06:30:48;20.77;;;2.50;;
70455;SDS011;57916;51.996;5.180;2023-12-20T06:33:16;21.52;;;3.03;;
70455;SDS011;57916;51.996;5.180;2023-12-20T06:35:45;25.63;;;3.13;;
70455;SDS011;57916;51.996;5.180;2023-12-20T06:38:12;22.23;;;2.97;;
70455;SDS011;57916;51.996;5.180;2023-12-20T06:40:38;22.85;;;2.58;;
70455;SDS011;57916;51.996;5.180;2023-12-20T06:43:06;18.20;;;3.30;;
70455;SDS011;57916;51.996;5.180;2023-12-20T06:45:46;27.17;;;3.50;;
70455;SDS011;57916;51.996;5.180;2023-12-20T06:48:13;22.80;;;3.20;;
70455;SDS011;57916;51.996;5.180;2023-12-20T06:50:40;23.77;;;3.00;;
70455;SDS011;57916;51.996;5.180;2023-12-20T06:53:07;25.77;;;3.20;;
70455;SDS011;57916;51.996;5.180;2023-12-20T06:55:35;37.30;;;4.25;;
70455;SDS011;57916;51.996;5.180;2023-12-20T06:58:03;25.02;;;2.92;;
70455;SDS011;57916;51.996;5.180;2023-12-20T07:00:30;19.00;;;2.92;;
70455;SDS011;57916;51.996;5.180;2023-12-20T07:02:58;21.33;;;3.58;;
70455;SDS011;57916;51.996;5.180;2023-12-20T07:05:25;22.88;;;3.30;;
70455;SDS011;57916;51.996;5.180;2023-12-20T07:07:53;20.23;;;3.10;;
70455;SDS011;57916;51.996;5.180;2023-12-20T07:10:20;22.98;;;3.03;;
70455;SDS011;57916;51.996;5.180;2023-12-20T07:12:47;24.27;;;3.05;;
70455;SDS011;57916;51.996;5.180;2023-12-20T07:15:15;23.83;;;3.15;;
70455;SDS011;57916;51.996;5.180;2023-12-20T07:17:42;29.02;;;3.75;;
70455;SDS011;57916;51.996;5.180;2023-12-20T07:20:10;23.52;;;3.67;;
70455;SDS011;57916;51.996;5.180;2023-12-20T07:22:37;24.88;;;3.50;;
70455;SDS011;57916;51.996;5.180;2023-12-20T07:25:06;18.85;;;2.88;;
70455;SDS011;57916;51.996;5.180;2023-12-20T07:27:33;24.23;;;3.13;;
70455;SDS011;57916;51.996;5.180;2023-12-20T07:30:00;24.10;;;3.00;;
70455;SDS011;57916;51.996;5.180;2023-12-20T07:32:27;28.25;;;3.63;;
70455;SDS011;57916;51.996;5.180;2023-12-20T07:34:55;21.63;;;3.25;;
70455;SDS011;57916;51.996;5.180;2023-12-20T07:37:22;30.33;;;3.85;;
70455;SDS011;57916;51.996;5.180;2023-12-20T07:39:49;21.88;;;3.03;;
70455;SDS011;57916;51.996;5.180;2023-12-20T07:42:15;26.38;;;3.63;;
70455;SDS011;57916;51.996;5.180;2023-12-20T07:44:42;25.70;;;3.47;;
70455;SDS011;57916;51.996;5.180;2023-12-20T07:47:10;25.95;;;2.92;;
70455;SDS011;57916;51.996;5.180;2023-12-20T07:49:38;26.23;;;3.38;;
70455;SDS011;57916;51.996;5.180;2023-12-20T07:52:05;20.60;;;3.92;;
70455;SDS011;57916;51.996;5.180;2023-12-20T07:54:32;38.45;;;3.97;;
70455;SDS011;57916;51.996;5.180;2023-12-20T07:57:00;23.05;;;3.17;;
70455;SDS011;57916;51.996;5.180;2023-12-20T07:59:28;24.70;;;2.88;;
70455;SDS011;57916;51.996;5.180;2023-12-20T08:01:58;20.10;;;3.05;;
70455;SDS011;57916;51.996;5.180;2023-12-20T08:04:26;26.00;;;3.20;;
70455;SDS011;57916;51.996;5.180;2023-12-20T08:06:53;23.92;;;2.97;;
70455;SDS011;57916;51.996;5.180;2023-12-20T08:09:21;17.30;;;3.00;;
70455;SDS011;57916;51.996;5.180;2023-12-20T08:11:48;39.00;;;4.05;;
70455;SDS011;57916;51.996;5.180;2023-12-20T08:14:15;23.77;;;3.70;;
70455;SDS011;57916;51.996;5.180;2023-12-20T08:16:42;33.53;;;3.80;;
70455;SDS011;57916;51.996;5.180;2023-12-20T08:19:10;17.95;;;2.83;;
70455;SDS011;57916;51.996;5.180;2023-12-20T08:21:37;19.52;;;2.67;;
70455;SDS011;57916;51.996;5.180;2023-12-20T08:24:04;20.98;;;2.80;;
70455;SDS011;57916;51.996;5.180;2023-12-20T08:26:32;22.65;;;3.35;;
70455;SDS011;57916;51.996;5.180;2023-12-20T08:28:59;22.53;;;3.07;;
70455;SDS011;57916;51.996;5.180;2023-12-20T08:31:28;23.10;;;2.92;;
70455;SDS011;57916;51.996;5.180;2023-12-20T08:33:55;17.95;;;3.05;;
70455;SDS011;57916;51.996;5.180;2023-12-20T08:36:23;25.92;;;3.08;;
70455;SDS011;57916;51.996;5.180;2023-12-20T08:38:50;24.77;;;3.47;;
70455;SDS011;57916;51.996;5.180;2023-12-20T08:41:17;21.30;;;3.00;;
70455;SDS011;57916;51.996;5.180;2023-12-20T08:43:45;17.08;;;2.80;;
70455;SDS011;57916;51.996;5.180;2023-12-20T08:46:13;21.45;;;2.83;;
70455;SDS011;57916;51.996;5.180;2023-12-20T08:48:41;17.88;;;2.58;;
70455;SDS011;57916;51.996;5.180;2023-12-20T08:51:09;14.48;;;2.65;;
70455;SDS011;57916;51.996;5.180;2023-12-20T08:53:36;17.85;;;2.97;;
70455;SDS011;57916;51.996;5.180;2023-12-20T08:56:04;19.60;;;2.83;;
70455;SDS011;57916;51.996;5.180;2023-12-20T08:58:31;24.00;;;3.03;;
70455;SDS011;57916;51.996;5.180;2023-12-20T09:00:58;24.48;;;2.67;;
70455;SDS011;57916;51.996;5.180;2023-12-20T09:03:25;21.73;;;2.87;;
70455;SDS011;57916;51.996;5.180;2023-12-20T09:05:52;21.33;;;2.90;;
70455;SDS011;57916;51.996;5.180;2023-12-20T09:08:19;24.90;;;2.88;;
70455;SDS011;57916;51.996;5.180;2023-12-20T09:10:46;22.33;;;2.50;;
70455;SDS011;57916;51.996;5.180;2023-12-20T09:13:13;19.85;;;2.70;;
70455;SDS011;57916;51.996;5.180;2023-12-20T09:15:41;25.35;;;3.30;;
70455;SDS011;57916;51.996;5.180;2023-12-20T09:18:08;21.27;;;3.22;;
70455;SDS011;57916;51.996;5.180;2023-12-20T09:20:35;20.73;;;2.83;;
70455;SDS011;57916;51.996;5.180;2023-12-20T09:23:05;23.33;;;3.20;;
70455;SDS011;57916;51.996;5.180;2023-12-20T09:25:32;21.25;;;2.92;;
70455;SDS011;57916;51.996;5.180;2023-12-20T09:27:59;21.70;;;3.47;;
70455;SDS011;57916;51.996;5.180;2023-12-20T09:30:26;24.92;;;3.15;;
70455;SDS011;57916;51.996;5.180;2023-12-20T09:32:54;13.48;;;2.70;;
70455;SDS011;57916;51.996;5.180;2023-12-20T09:35:21;32.00;;;3.60;;
70455;SDS011;57916;51.996;5.180;2023-12-20T09:37:49;15.50;;;2.58;;
70455;SDS011;57916;51.996;5.180;2023-12-20T09:40:18;14.32;;;2.80;;
70455;SDS011;57916;51.996;5.180;2023-12-20T09:42:58;18.90;;;2.67;;
70455;SDS011;57916;51.996;5.180;2023-12-20T09:45:31;19.73;;;2.60;;
70455;SDS011;57916;51.996;5.180;2023-12-20T09:47:59;15.77;;;2.45;;
70455;SDS011;57916;51.996;5.180;2023-12-20T09:50:26;15.30;;;2.20;;
70455;SDS011;57916;51.996;5.180;2023-12-20T09:52:54;21.25;;;2.45;;
70455;SDS011;57916;51.996;5.180;2023-12-20T09:55:25;18.70;;;2.95;;
70455;SDS011;57916;51.996;5.180;2023-12-20T09:57:54;22.98;;;2.78;;
70455;SDS011;57916;51.996;5.180;2023-12-20T10:00:21;20.10;;;2.65;;
70455;SDS011;57916;51.996;5.180;2023-12-20T10:05:27;22.52;;;3.17;;
70455;SDS011;57916;51.996;5.180;2023-12-20T10:07:55;23.50;;;2.70;;
70455;SDS011;57916;51.996;5.180;2023-12-20T10:10:22;20.40;;;2.78;;
70455;SDS011;57916;51.996;5.180;2023-12-20T10:15:36;17.48;;;2.35;;
70455;SDS011;57916;51.996;5.180;2023-12-20T10:18:03;16.45;;;2.35;;
70455;SDS011;57916;51.996;5.180;2023-12-20T10:20:31;22.55;;;2.90;;
70455;SDS011;57916;51.996;5.180;2023-12-20T10:22:59;20.02;;;2.70;;
70455;SDS011;57916;51.996;5.180;2023-12-20T10:25:27;21.08;;;2.60;;
70455;SDS011;57916;51.996;5.180;2023-12-20T10:28:13;24.20;;;2.47;;
70455;SDS011;57916;51.996;5.180;2023-12-20T10:30:45;18.47;;;3.17;;
70455;SDS011;57916;51.996;5.180;2023-12-20T10:33:12;16.63;;;3.20;;
70455;SDS011;57916;51.996;5.180;2023-12-20T10:35:40;14.90;;;2.55;;
70455;SDS011;57916;51.996;5.180;2023-12-20T10:38:11;18.58;;;2.40;;
70455;SDS011;57916;51.996;5.180;2023-12-20T10:40:40;20.15;;;2.80;;
70455;SDS011;57916;51.996;5.180;2023-12-20T10:43:08;23.20;;;2.58;;
70455;SDS011;57916;51.996;5.180;2023-12-20T10:45:35;17.90;;;2.40;;
70455;SDS011;57916;51.996;5.180;2023-12-20T10:48:02;19.42;;;2.92;;
70455;SDS011;57916;51.996;5.180;2023-12-20T10:50:31;17.63;;;2.53;;
70455;SDS011;57916;51.996;5.180;2023-12-20T10:52:58;17.67;;;2.80;;
70455;SDS011;57916;51.996;5.180;2023-12-20T10:55:26;20.42;;;3.13;;
70455;SDS011;57916;51.996;5.180;2023-12-20T10:58:01;19.83;;;2.97;;
70455;SDS011;57916;51.996;5.180;2023-12-20T11:00:31;21.45;;;2.50;;
70455;SDS011;57916;51.996;5.180;2023-12-20T11:03:02;18.13;;;2.05;;
70455;SDS011;57916;51.996;5.180;2023-12-20T11:05:33;14.38;;;2.30;;
70455;SDS011;57916;51.996;5.180;2023-12-20T11:08:33;18.20;;;2.55;;
70455;SDS011;57916;51.996;5.180;2023-12-20T11:11:10;19.23;;;2.50;;
70455;SDS011;57916;51.996;5.180;2023-12-20T11:13:59;15.25;;;2.30;;
70455;SDS011;57916;51.996;5.180;2023-12-20T11:16:33;17.73;;;2.78;;
70455;SDS011;57916;51.996;5.180;2023-12-20T11:19:17;15.68;;;2.60;;
70455;SDS011;57916;51.996;5.180;2023-12-20T11:21:45;15.77;;;2.35;;
70455;SDS011;57916;51.996;5.180;2023-12-20T11:24:13;13.18;;;2.22;;
70455;SDS011;57916;51.996;5.180;2023-12-20T11:26:46;11.60;;;2.38;;
70455;SDS011;57916;51.996;5.180;2023-12-20T11:29:33;13.70;;;2.17;;
70455;SDS011;57916;51.996;5.180;2023-12-20T11:32:02;15.15;;;2.22;;
70455;SDS011;57916;51.996;5.180;2023-12-20T11:34:33;19.65;;;2.50;;
70455;SDS011;57916;51.996;5.180;2023-12-20T11:37:02;19.08;;;2.78;;
70455;SDS011;57916;51.996;5.180;2023-12-20T11:39:30;16.73;;;2.20;;
70455;SDS011;57916;51.996;5.180;2023-12-20T11:41:57;17.92;;;2.58;;
70455;SDS011;57916;51.996;5.180;2023-12-20T11:44:32;17.55;;;2.70;;
70455;SDS011;57916;51.996;5.180;2023-12-20T11:46:59;16.88;;;2.25;;
70455;SDS011;57916;51.996;5.180;2023-12-20T11:49:26;15.85;;;2.30;;
70455;SDS011;57916;51.996;5.180;2023-12-20T11:51:56;18.50;;;2.88;;
70455;SDS011;57916;51.996;5.180;2023-12-20T11:54:23;15.68;;;2.42;;
70455;SDS011;57916;51.996;5.180;2023-12-20T11:56:50;17.27;;;2.25;;
70455;SDS011;57916;51.996;5.180;2023-12-20T11:59:17;17.50;;;2.63;;
70455;SDS011;57916;51.996;5.180;2023-12-20T12:01:52;18.88;;;2.30;;
70455;SDS011;57916;51.996;5.180;2023-12-20T12:04:19;19.90;;;2.40;;
70455;SDS011;57916;51.996;5.180;2023-12-20T12:06:46;18.50;;;2.97;;
70455;SDS011;57916;51.996;5.180;2023-12-20T12:09:13;12.40;;;2.75;;
70455;SDS011;57916;51.996;5.180;2023-12-20T12:11:41;17.80;;;2.08;;
70455;SDS011;57916;51.996;5.180;2023-12-20T12:14:09;17.92;;;2.70;;
70455;SDS011;57916;51.996;5.180;2023-12-20T12:16:37;18.63;;;2.60;;
70455;SDS011;57916;51.996;5.180;2023-12-20T12:19:04;17.23;;;2.47;;
70455;SDS011;57916;51.996;5.180;2023-12-20T12:21:31;18.10;;;2.70;;
70455;SDS011;57916;51.996;5.180;2023-12-20T12:24:06;13.17;;;1.90;;
70455;SDS011;57916;51.996;5.180;2023-12-20T12:26:36;13.55;;;2.15;;
70455;SDS011;57916;51.996;5.180;2023-12-20T12:29:06;14.82;;;2.33;;
70455;SDS011;57916;51.996;5.180;2023-12-20T12:31:34;15.77;;;2.10;;
70455;SDS011;57916;51.996;5.180;2023-12-20T12:34:01;23.92;;;2.30;;
70455;SDS011;57916;51.996;5.180;2023-12-20T12:36:29;19.73;;;3.10;;
70455;SDS011;57916;51.996;5.180;2023-12-20T12:38:57;12.50;;;1.77;;
70455;SDS011;57916;51.996;5.180;2023-12-20T12:41:24;15.85;;;2.40;;
70455;SDS011;57916;51.996;5.180;2023-12-20T12:43:51;15.07;;;2.37;;
70455;SDS011;57916;51.996;5.180;2023-12-20T12:46:18;14.00;;;2.20;;
70455;SDS011;57916;51.996;5.180;2023-12-20T12:48:45;18.90;;;2.30;;
70455;SDS011;57916;51.996;5.180;2023-12-20T12:51:13;19.55;;;2.72;;
70455;SDS011;57916;51.996;5.180;2023-12-20T12:53:40;19.40;;;2.50;;
70455;SDS011;57916;51.996;5.180;2023-12-20T12:56:07;21.40;;;2.35;;
70455;SDS011;57916;51.996;5.180;2023-12-20T12:58:36;13.48;;;1.90;;
70455;SDS011;57916;51.996;5.180;2023-12-20T13:01:03;17.13;;;2.45;;
70455;SDS011;57916;51.996;5.180;2023-12-20T13:03:30;13.50;;;2.38;;
70455;SDS011;57916;51.996;5.180;2023-12-20T13:05:57;12.38;;;2.22;;
70455;SDS011;57916;51.996;5.180;2023-12-20T13:08:25;20.40;;;2.60;;
70455;SDS011;57916;51.996;5.180;2023-12-20T13:10:52;15.80;;;2.15;;
70455;SDS011;57916;51.996;5.180;2023-12-20T13:13:19;13.70;;;2.20;;
70455;SDS011;57916;51.996;5.180;2023-12-20T13:15:46;22.27;;;2.75;;
70455;SDS011;57916;51.996;5.180;2023-12-20T13:18:17;12.82;;;2.20;;
70455;SDS011;57916;51.996;5.180;2023-12-20T13:20:45;13.77;;;2.30;;
70455;SDS011;57916;51.996;5.180;2023-12-20T13:23:12;13.38;;;2.10;;
70455;SDS011;57916;51.996;5.180;2023-12-20T13:25:39;13.32;;;2.53;;
70455;SDS011;57916;51.996;5.180;2023-12-20T13:28:07;13.65;;;2.25;;
70455;SDS011;57916;51.996;5.180;2023-12-20T13:30:35;19.70;;;2.28;;
70455;SDS011;57916;51.996;5.180;2023-12-20T13:33:02;15.88;;;2.25;;
70455;SDS011;57916;51.996;5.180;2023-12-20T13:35:29;14.48;;;1.98;;
70455;SDS011;57916;51.996;5.180;2023-12-20T13:37:57;14.48;;;2.28;;
70455;SDS011;57916;51.996;5.180;2023-12-20T13:40:25;18.48;;;2.35;;
70455;SDS011;57916;51.996;5.180;2023-12-20T13:42:52;7.75;;;1.63;;
70455;SDS011;57916;51.996;5.180;2023-12-20T13:45:19;14.20;;;2.10;;
70455;SDS011;57916;51.996;5.180;2023-12-20T13:47:46;13.20;;;2.40;;
70455;SDS011;57916;51.996;5.180;2023-12-20T13:50:13;19.80;;;2.30;;
70455;SDS011;57916;51.996;5.180;2023-12-20T13:52:40;16.83;;;2.23;;
70455;SDS011;57916;51.996;5.180;2023-12-20T13:55:07;12.85;;;2.30;;
70455;SDS011;57916;51.996;5.180;2023-12-20T13:57:35;15.73;;;2.30;;
70455;SDS011;57916;51.996;5.180;2023-12-20T14:00:20;15.85;;;2.30;;
70455;SDS011;57916;51.996;5.180;2023-12-20T14:02:47;15.50;;;2.13;;
70455;SDS011;57916;51.996;5.180;2023-12-20T14:05:15;16.40;;;2.33;;
70455;SDS011;57916;51.996;5.180;2023-12-20T14:07:44;14.38;;;2.30;;
70455;SDS011;57916;51.996;5.180;2023-12-20T14:10:13;16.30;;;2.45;;
70455;SDS011;57916;51.996;5.180;2023-12-20T14:12:40;18.83;;;2.28;;
70455;SDS011;57916;51.996;5.180;2023-12-20T14:15:07;16.38;;;2.42;;
70455;SDS011;57916;51.996;5.180;2023-12-20T14:17:37;16.48;;;2.30;;
70455;SDS011;57916;51.996;5.180;2023-12-20T14:20:06;20.63;;;2.85;;
70455;SDS011;57916;51.996;5.180;2023-12-20T14:22:34;16.23;;;2.43;;
70455;SDS011;57916;51.996;5.180;2023-12-20T14:25:02;13.80;;;2.17;;
70455;SDS011;57916;51.996;5.180;2023-12-20T14:27:29;17.42;;;2.15;;
70455;SDS011;57916;51.996;5.180;2023-12-20T14:29:56;13.55;;;2.38;;
70455;SDS011;57916;51.996;5.180;2023-12-20T14:32:23;16.50;;;2.00;;
70455;SDS011;57916;51.996;5.180;2023-12-20T14:34:53;11.90;;;2.08;;
70455;SDS011;57916;51.996;5.180;2023-12-20T14:37:21;17.73;;;2.47;;
70455;SDS011;57916;51.996;5.180;2023-12-20T14:39:49;17.73;;;2.38;;
70455;SDS011;57916;51.996;5.180;2023-12-20T14:42:16;17.73;;;2.63;;
70455;SDS011;57916;51.996;5.180;2023-12-20T14:44:43;15.82;;;2.38;;
70455;SDS011;57916;51.996;5.180;2023-12-20T14:47:10;16.83;;;2.28;;